Haramachi Maru — JBML — position and weather

sailwx.info

Track history (hours):
 
Tides and Currents Weather Stations Pressure Air Temp Water Temp Dewpoint Dewpoint Depression Visibility Wind Speed Wind Dir Waves Ship Positions

Haramachi Maru

Last reported at 2014-Nov-30 00:10 UTC. Time now 2014-Dec-20 06:32 UTC.
Position S 27°35' E 153°51'.
Warning: this ship's position is 20 days out of date.

Length 239.8 m; beam 43 m.

Type: Cargo ship. MMSI: 431106000.

Date/timePositionNaut miles runAvg speedWind from/ knotsBaromVisibWave heightAir tempDewpointWater temp
2014-Nov-30 00:10S 27°35' E 153°51'6 9.6
2014-Nov-29 23:31S 27°41' E 153°50'9 9.7
2014-Nov-29 22:33S 27°51' E 153°50'1110.9
2014-Nov-29 21:33S 28°02' E 153°50'11 9.3
2014-Nov-29 20:21S 28°13' E 153°49'27210.2
2014-Nov-28 17:34S 32°37' E 152°36'1111.3
2014-Nov-28 16:33S 32°47' E 152°28'1110.9
2014-Nov-28 15:33S 32°55' E 152°19'1111.1
2014-Nov-28 14:33S 32°59' E 152°07'1210.7
2014-Nov-28 13:23S 32°59' E 151°52'6 7.0
2014-Nov-28 12:32S 32°55' E 151°47'2 2.3
2014-Nov-28 11:33S 32°53' E 151°46'0 0.0
2014-Nov-28 10:27S 32°53' E 151°46'0 0.0
2014-Nov-28 08:21S 32°53' E 151°46'0 0.0
2014-Nov-28 07:33S 32°53' E 151°46'0 0.0
2014-Nov-28 06:27S 32°53' E 151°46'0 0.0
2014-Nov-28 05:33S 32°53' E 151°46'0 0.0
2014-Nov-28 04:33S 32°53' E 151°46'0 0.0
2014-Nov-28 03:33S 32°53' E 151°46'0 0.0
2014-Nov-28 02:33S 32°53' E 151°46'0 0.0
2014-Nov-28 01:33S 32°53' E 151°46'0 0.0
2014-Nov-28 00:33S 32°53' E 151°46'0 0.0
2014-Nov-27 23:33S 32°53' E 151°46'0 0.0
2014-Nov-27 22:33S 32°53' E 151°46'0 0.0
2014-Nov-27 21:33S 32°53' E 151°46'0 0.0
2014-Nov-27 20:33S 32°53' E 151°46'0 0.0
2014-Nov-27 19:33S 32°53' E 151°46'0 0.0
2014-Nov-27 18:33S 32°53' E 151°46'0 0.0
2014-Nov-27 17:33S 32°53' E 151°46'0 0.0
2014-Nov-27 16:33S 32°53' E 151°46'1 1.0
2014-Nov-27 15:33S 32°54' E 151°46'8 7.8
2014-Nov-27 14:32S 32°58' E 151°55'7 7.2
2014-Nov-27 13:33S 32°58' E 152°03'1312.8
2014-Nov-27 12:33S 32°53' E 152°17'1212.3
2014-Nov-27 11:34S 32°47' E 152°30'1 1.2
2014-Nov-27 10:34S 32°48' E 152°29'2 1.6
2014-Nov-27 09:33S 32°50' E 152°29'2 1.5
2014-Nov-27 08:34S 32°51' E 152°29'2 1.6
2014-Nov-27 07:34S 32°53' E 152°29'2 1.6
2014-Nov-27 06:33S 32°55' E 152°29'2 1.7
2014-Nov-27 05:28S 32°56' E 152°29'1 1.5
2014-Nov-27 04:31S 32°58' E 152°29'1010.0
2014-Nov-27 03:33S 32°57' E 152°18'8 7.8
2014-Nov-27 02:33S 32°55' E 152°08'2 2.1
2014-Nov-27 01:33S 32°55' E 152°11'2 2.3
2014-Nov-27 00:33S 32°55' E 152°14'2 2.2
2014-Nov-26 23:34S 32°55' E 152°16'2 1.9
2014-Nov-26 22:33S 32°56' E 152°18'2 1.8
2014-Nov-26 21:34S 32°56' E 152°20'2 1.7
2014-Nov-26 20:34S 32°57' E 152°22'1 1.5
2014-Nov-26 19:33S 32°58' E 152°24'1 1.4
2014-Nov-26 18:33S 32°58' E 152°25'1 1.0
2014-Nov-26 17:34S 32°59' E 152°26'0 0.5
2014-Nov-26 16:34S 32°59' E 152°27'0 0.4
2014-Nov-26 15:34S 32°59' E 152°27'1 0.7
2014-Nov-26 14:34S 32°58' E 152°28'1 1.1
2014-Nov-26 13:33S 32°57' E 152°29'1 1.3
2014-Nov-26 12:33S 32°56' E 152°29'2 1.5
2014-Nov-26 11:33S 32°55' E 152°30'2 1.7
2014-Nov-26 10:34S 32°53' E 152°31'2 1.8
2014-Nov-26 09:33S 32°52' E 152°32'2 1.6
2014-Nov-26 08:33S 32°50' E 152°32'2 2.1
2014-Nov-26 07:34S 32°48' E 152°33'1312.7
2014-Nov-26 06:33S 32°36' E 152°38'10 2.4
2014-Nov-26 02:23S 32°30' E 152°47'7 0.2
2014-Nov-24 20:19S 32°36' E 152°51'1312.1
2014-Nov-24 19:17S 32°49' E 152°52'912.7
2014-Nov-24 18:34S 32°58' E 152°52'94 9.1
2014-Nov-24 08:15S 33°46' E 154°29'16 9.2
2014-Nov-24 06:33S 33°52' E 154°46'57 2.5
2014-Nov-23 07:33S 33°04' E 154°09'5 4.8
2014-Nov-23 06:33S 32°59' E 154°07'12 4.1
2014-Nov-23 03:34S 32°47' E 154°05'3 3.4
2014-Nov-23 02:34S 32°44' E 154°05'3 3.0
2014-Nov-23 01:32S 32°41' E 154°05'12 2.4
2014-Nov-22 20:33S 32°29' E 154°04'2 1.9
2014-Nov-22 19:24S 32°27' E 154°04'3 1.7
2014-Nov-22 17:19S 32°24' E 154°02'1 1.5
2014-Nov-22 16:33S 32°23' E 154°01'1 1.4
2014-Nov-22 15:34S 32°21' E 154°01'1 1.3
2014-Nov-22 14:32S 32°20' E 154°01'1 1.3
2014-Nov-22 13:33S 32°19' E 154°01'1 1.3
2014-Nov-22 12:34S 32°17' E 154°01'1 1.3
2014-Nov-22 11:31S 32°16' E 154°01'1 1.3
2014-Nov-22 10:31S 32°15' E 154°02'29 1.2
2014-Nov-21 10:13S 31°46' E 154°01'1 2.0
2014-Nov-21 09:30S 31°44' E 154°01'2 2.1
2014-Nov-21 08:26S 31°42' E 154°00'2 2.4
2014-Nov-21 07:31S 31°40' E 153°60'3 2.3
2014-Nov-21 06:26S 31°38' E 153°59'  
Track history (hours):
 
Tides and Currents Weather Stations Pressure Air Temp Water Temp Dewpoint Dewpoint Depression Visibility Wind Speed Wind Dir Waves Ship Positions

Haramachi Maru

Last reported at 2014-Nov-30 00:10 UTC. Time now 2014-Dec-20 06:32 UTC.
Position S 27°35' E 153°51'.
Warning: this ship's position is 20 days out of date.

Length 239.8 m; beam 43 m.

Type: Cargo ship. MMSI: 431106000.

Date/timePositionNaut miles runAvg speedWind from/ knotsBaromVisibWave heightAir tempDewpointWater temp
2014-Nov-30 00:10S 27°35' E 153°51'6 9.6
2014-Nov-29 23:31S 27°41' E 153°50'9 9.7
2014-Nov-29 22:33S 27°51' E 153°50'1110.9
2014-Nov-29 21:33S 28°02' E 153°50'11 9.3
2014-Nov-29 20:21S 28°13' E 153°49'27210.2
2014-Nov-28 17:34S 32°37' E 152°36'1111.3
2014-Nov-28 16:33S 32°47' E 152°28'1110.9
2014-Nov-28 15:33S 32°55' E 152°19'1111.1
2014-Nov-28 14:33S 32°59' E 152°07'1210.7
2014-Nov-28 13:23S 32°59' E 151°52'6 7.0
2014-Nov-28 12:32S 32°55' E 151°47'2 2.3
2014-Nov-28 11:33S 32°53' E 151°46'0 0.0
2014-Nov-28 10:27S 32°53' E 151°46'0 0.0
2014-Nov-28 08:21S 32°53' E 151°46'0 0.0
2014-Nov-28 07:33S 32°53' E 151°46'0 0.0
2014-Nov-28 06:27S 32°53' E 151°46'0 0.0
2014-Nov-28 05:33S 32°53' E 151°46'0 0.0
2014-Nov-28 04:33S 32°53' E 151°46'0 0.0
2014-Nov-28 03:33S 32°53' E 151°46'0 0.0
2014-Nov-28 02:33S 32°53' E 151°46'0 0.0
2014-Nov-28 01:33S 32°53' E 151°46'0 0.0
2014-Nov-28 00:33S 32°53' E 151°46'0 0.0
2014-Nov-27 23:33S 32°53' E 151°46'0 0.0
2014-Nov-27 22:33S 32°53' E 151°46'0 0.0
2014-Nov-27 21:33S 32°53' E 151°46'0 0.0
2014-Nov-27 20:33S 32°53' E 151°46'0 0.0
2014-Nov-27 19:33S 32°53' E 151°46'0 0.0
2014-Nov-27 18:33S 32°53' E 151°46'0 0.0
2014-Nov-27 17:33S 32°53' E 151°46'0 0.0
2014-Nov-27 16:33S 32°53' E 151°46'1 1.0
2014-Nov-27 15:33S 32°54' E 151°46'8 7.8
2014-Nov-27 14:32S 32°58' E 151°55'7 7.2
2014-Nov-27 13:33S 32°58' E 152°03'1312.8
2014-Nov-27 12:33S 32°53' E 152°17'1212.3
2014-Nov-27 11:34S 32°47' E 152°30'1 1.2
2014-Nov-27 10:34S 32°48' E 152°29'2 1.6
2014-Nov-27 09:33S 32°50' E 152°29'2 1.5
2014-Nov-27 08:34S 32°51' E 152°29'2 1.6
2014-Nov-27 07:34S 32°53' E 152°29'2 1.6
2014-Nov-27 06:33S 32°55' E 152°29'2 1.7
2014-Nov-27 05:28S 32°56' E 152°29'1 1.5
2014-Nov-27 04:31S 32°58' E 152°29'1010.0
2014-Nov-27 03:33S 32°57' E 152°18'8 7.8
2014-Nov-27 02:33S 32°55' E 152°08'2 2.1
2014-Nov-27 01:33S 32°55' E 152°11'2 2.3
2014-Nov-27 00:33S 32°55' E 152°14'2 2.2
2014-Nov-26 23:34S 32°55' E 152°16'2 1.9
2014-Nov-26 22:33S 32°56' E 152°18'2 1.8
2014-Nov-26 21:34S 32°56' E 152°20'2 1.7
2014-Nov-26 20:34S 32°57' E 152°22'1 1.5
2014-Nov-26 19:33S 32°58' E 152°24'1 1.4
2014-Nov-26 18:33S 32°58' E 152°25'1 1.0
2014-Nov-26 17:34S 32°59' E 152°26'0 0.5
2014-Nov-26 16:34S 32°59' E 152°27'0 0.4
2014-Nov-26 15:34S 32°59' E 152°27'1 0.7
2014-Nov-26 14:34S 32°58' E 152°28'1 1.1
2014-Nov-26 13:33S 32°57' E 152°29'1 1.3
2014-Nov-26 12:33S 32°56' E 152°29'2 1.5
2014-Nov-26 11:33S 32°55' E 152°30'2 1.7
2014-Nov-26 10:34S 32°53' E 152°31'2 1.8
2014-Nov-26 09:33S 32°52' E 152°32'2 1.6
2014-Nov-26 08:33S 32°50' E 152°32'2 2.1
2014-Nov-26 07:34S 32°48' E 152°33'1312.7
2014-Nov-26 06:33S 32°36' E 152°38'10 2.4
2014-Nov-26 02:23S 32°30' E 152°47'7 0.2
2014-Nov-24 20:19S 32°36' E 152°51'1312.1
2014-Nov-24 19:17S 32°49' E 152°52'912.7
2014-Nov-24 18:34S 32°58' E 152°52'94 9.1
2014-Nov-24 08:15S 33°46' E 154°29'16 9.2
2014-Nov-24 06:33S 33°52' E 154°46'57 2.5
2014-Nov-23 07:33S 33°04' E 154°09'5 4.8
2014-Nov-23 06:33S 32°59' E 154°07'12 4.1
2014-Nov-23 03:34S 32°47' E 154°05'3 3.4
2014-Nov-23 02:34S 32°44' E 154°05'3 3.0
2014-Nov-23 01:32S 32°41' E 154°05'12 2.4
2014-Nov-22 20:33S 32°29' E 154°04'2 1.9
2014-Nov-22 19:24S 32°27' E 154°04'3 1.7
2014-Nov-22 17:19S 32°24' E 154°02'1 1.5
2014-Nov-22 16:33S 32°23' E 154°01'1 1.4
2014-Nov-22 15:34S 32°21' E 154°01'1 1.3
2014-Nov-22 14:32S 32°20' E 154°01'1 1.3
2014-Nov-22 13:33S 32°19' E 154°01'1 1.3
2014-Nov-22 12:34S 32°17' E 154°01'1 1.3
2014-Nov-22 11:31S 32°16' E 154°01'1 1.3
2014-Nov-22 10:31S 32°15' E 154°02'29 1.2
2014-Nov-21 10:13S 31°46' E 154°01'1 2.0
2014-Nov-21 09:30S 31°44' E 154°01'2 2.1
2014-Nov-21 08:26S 31°42' E 154°00'2 2.4
2014-Nov-21 07:31S 31°40' E 153°60'3 2.3
2014-Nov-21 06:26S 31°38' E 153°59'  

Dump ship's entire track history